| time (UTC) | temp F | wind direction | speed MPH | gust MPH | rain 1hr in | rain 24hr in | rain mn in | humidity % | barometer mb |
| 20260906200002 | 101 | 53 | 3.0 | 7.0 | 0.00 | 0.00 | 0.00 | 36 | 1010.0 |
| 20260906194600 | 101 | 37 | 2.0 | 6.0 | 0.00 | 0.00 | 0.00 | 36 | 1010.2 |
| 20260906193059 | 101 | 274 | 2.0 | 7.0 | 0.00 | 0.00 | 0.00 | 36 | 1010.5 |
| 20260906191556 | 100 | 44 | 4.0 | 7.0 | 0.00 | 0.00 | 0.00 | 38 | 1010.6 |
| 20260906184619 | 98 | 108 | 4.0 | 8.0 | 0.00 | 0.00 | 0.00 | 41 | 1011.1 |
| 20260906183052 | 97 | 83 | 0.0 | 5.0 | 0.00 | 0.00 | 0.00 | 42 | 1011.3 |
| 20260906181553 | 98 | 152 | 2.0 | 5.0 | 0.00 | 0.00 | 0.00 | 40 | 1011.5 |
| 20260906180050 | 100 | 217 | 0.0 | 7.0 | 0.00 | 0.00 | 0.00 | 38 | 1011.8 |
| 20260906174546 | 99 | 189 | 2.0 | 7.0 | 0.00 | 0.00 | 0.00 | 39 | 1012.0 |
| 20260906173043 | 98 | 138 | 2.0 | 6.0 | 0.00 | 0.00 | 0.00 | 44 | 1012.3 |
| 20260906171542 | 96 | 42 | 1.0 | 4.0 | 0.00 | 0.00 | 0.00 | 42 | 1012.6 |
| 20260906170036 | 96 | 238 | 2.0 | 5.0 | 0.00 | 0.00 | 0.00 | 42 | 1012.8 |
| 20260906164539 | 95 | 301 | 0.0 | 4.0 | 0.00 | 0.00 | 0.00 | 44 | 1012.9 |
| 20260906163033 | 94 | 48 | 2.0 | 5.0 | 0.00 | 0.00 | 0.00 | 46 | 1013.0 |
| 20260906161532 | 94 | 20 | 2.0 | 6.0 | 0.00 | 0.00 | 0.00 | 46 | 1013.0 |
| 20260906160027 | 93 | 23 | 3.0 | 6.0 | 0.00 | 0.00 | 0.00 | 48 | 1013.1 |
| 20260906154528 | 92 | 300 | 3.0 | 7.0 | 0.00 | 0.00 | 0.00 | 50 | 1013.1 |
| 20260906153026 | 91 | 333 | 3.0 | 6.0 | 0.00 | 0.00 | 0.00 | 51 | 1013.0 |
| 20260906151522 | 92 | 327 | 2.0 | 4.0 | 0.00 | 0.00 | 0.00 | 50 | 1012.9 |
| 20260906150020 | 93 | 301 | 1.0 | 3.0 | 0.00 | 0.00 | 0.00 | 49 | 1012.9 |
| 20260906144519 | 90 | 162 | 0.0 | 2.0 | 0.00 | 0.00 | 0.00 | 51 | 1012.8 |
| 20260906143014 | 88 | 240 | 1.0 | 2.0 | 0.00 | 0.00 | 0.00 | 53 | 1012.8 |
| 20260906141519 | 86 | 150 | 0.0 | 1.0 | 0.00 | 0.00 | 0.00 | 59 | 1012.7 |
| 20260906140004 | 85 | 153 | 0.0 | 1.0 | 0.00 | 0.00 | 0.00 | 60 | 1012.6 |
| 20260906134500 | 83 | 205 | 0.0 | 1.0 | 0.00 | 0.00 | 0.00 | 63 | 1012.5 |
| 20260906133057 | 81 | 155 | 0.0 | 2.0 | 0.00 | 0.00 | 0.00 | 69 | 1012.3 |
| 20260906131553 | 77 | 155 | 0.0 | 4.0 | 0.00 | 0.00 | 0.00 | 74 | 1012.3 |
| 20260906130112 | 75 | 150 | 1.0 | 2.0 | 0.00 | 0.00 | 0.00 | 78 | 1012.2 |
| 20260906124550 | 73 | 188 | 0.0 | 1.0 | 0.00 | 0.00 | 0.00 | 80 | 1011.9 |
| 20260906123047 | 73 | 187 | 0.0 | 0.0 | 0.00 | 0.00 | 0.00 | 80 | 1011.8 |
| 20260906121553 | 73 | 187 | 0.0 | 0.0 | 0.00 | 0.00 | 0.00 | 80 | 1011.5 |
| 20260906120046 | 73 | 187 | 0.0 | 0.0 | 0.00 | 0.00 | 0.00 | 80 | 1011.5 |
| 20260906114543 | 72 | 187 | 0.0 | 0.0 | 0.00 | 0.00 | 0.00 | 81 | 1011.3 |
| 20260906113049 | 72 | 189 | 0.0 | 0.0 | 0.00 | 0.00 | 0.00 | 81 | 1011.3 |
| 20260906111538 | 73 | 189 | 0.0 | 0.0 | 0.00 | 0.00 | 0.00 | 80 | 1011.2 |
| 20260906110034 | 73 | 189 | 0.0 | 0.0 | 0.00 | 0.00 | 0.00 | 79 | 1011.2 |
| 20260906104535 | 74 | 189 | 0.0 | 0.0 | 0.00 | 0.00 | 0.00 | 78 | 1010.9 |
| 20260906103042 | 74 | 189 | 0.0 | 0.0 | 0.00 | 0.00 | 0.00 | 78 | 1010.8 |
| 20260906101530 | 74 | 189 | 0.0 | 0.0 | 0.00 | 0.00 | 0.00 | 78 | 1010.9 |
| 20260906100031 | 74 | 217 | 0.0 | 2.0 | 0.00 | 0.00 | 0.00 | 78 | 1010.9 |
| 20260906094527 | 74 | 175 | 0.0 | 0.0 | 0.00 | 0.00 | 0.00 | 77 | 1010.8 |
| 20260906093027 | 74 | 158 | 0.0 | 1.0 | 0.00 | 0.00 | 0.00 | 78 | 1010.8 |
| 20260906091526 | 74 | 205 | 0.0 | 0.0 | 0.00 | 0.00 | 0.00 | 79 | 1010.9 |
| 20260906090025 | 74 | 205 | 0.0 | 0.0 | 0.00 | 0.00 | 0.00 | 78 | 1010.7 |
| 20260906084524 | 74 | 187 | 0.0 | 0.0 | 0.00 | 0.00 | 0.00 | 78 | 1010.6 |
| 20260906083021 | 75 | 187 | 0.0 | 0.0 | 0.00 | 0.00 | 0.00 | 77 | 1010.6 |
| 20260906081520 | 75 | 187 | 0.0 | 1.0 | 0.00 | 0.00 | 0.00 | 75 | 1010.4 |
| 20260906080159 | 76 | 188 | 0.0 | 0.0 | 0.00 | 0.00 | 0.00 | 73 | 1010.5 |
| 20260906074514 | 76 | 188 | 1.0 | 2.0 | 0.00 | 0.00 | 0.00 | 72 | 1010.4 |
| 20260906073012 | 76 | 195 | 2.0 | 3.0 | 0.00 | 0.00 | 0.00 | 72 | 1010.3 |
| 20260906071511 | 77 | 203 | 1.0 | 2.0 | 0.00 | 0.00 | 0.00 | 72 | 1010.4 |
| 20260906070010 | 77 | 176 | 1.0 | 2.0 | 0.00 | 0.00 | 0.00 | 71 | 1010.4 |
| 20260906064509 | 78 | 199 | 0.0 | 2.0 | 0.00 | 0.00 | 0.00 | 69 | 1010.6 |
| 20260906063008 | 77 | 186 | 1.0 | 3.0 | 0.00 | 0.00 | 0.00 | 71 | 1010.5 |
| 20260906061516 | 76 | 187 | 1.0 | 2.0 | 0.00 | 0.00 | 0.00 | 74 | 1010.6 |
| 20260906060002 | 76 | 214 | 0.0 | 1.0 | 0.00 | 0.00 | 0.00 | 73 | 1010.5 |
| 20260906054504 | 76 | 214 | 0.0 | 0.0 | 0.00 | 0.00 | 0.00 | 72 | 1010.5 |
| 20260906053059 | 76 | 214 | 0.0 | 1.0 | 0.00 | 0.00 | 0.00 | 73 | 1010.6 |
| 20260906051605 | 77 | 214 | 0.0 | 1.0 | 0.00 | 0.00 | 0.00 | 72 | 1010.5 |
| 20260906050051 | 78 | 214 | 0.0 | 1.0 | 0.00 | 0.00 | 0.00 | 71 | 1010.4 |
| 20260906044551 | 79 | 214 | 0.0 | 0.0 | 0.00 | 0.00 | 0.00 | 69 | 1010.4 |
| 20260906043051 | 79 | 214 | 0.0 | 1.0 | 0.00 | 0.00 | 0.00 | 67 | 1010.3 |
| 20260906041551 | 80 | 214 | 0.0 | 1.0 | 0.00 | 0.00 | 0.00 | 65 | 1010.3 |
| 20260906040050 | 82 | 214 | 1.0 | 2.0 | 0.00 | 0.00 | 0.00 | 62 | 1010.3 |
| 20260906034556 | 82 | 214 | 0.0 | 2.0 | 0.00 | 0.00 | 0.00 | 62 | 1010.5 |
| 20260906033051 | 82 | 210 | 1.0 | 2.0 | 0.00 | 0.00 | 0.00 | 61 | 1010.3 |
| 20260906031548 | 82 | 214 | 2.0 | 2.0 | 0.00 | 0.00 | 0.00 | 61 | 1010.2 |
| 20260906030049 | 81 | 206 | 1.0 | 3.0 | 0.00 | 0.00 | 0.00 | 63 | 1010.1 |
| 20260906024547 | 82 | 209 | 0.0 | 1.0 | 0.00 | 0.00 | 0.00 | 62 | 1010.0 |
| 20260906023050 | 83 | 208 | 0.0 | 1.0 | 0.00 | 0.00 | 0.00 | 60 | 1009.9 |
| 20260906021547 | 84 | 209 | 2.0 | 2.0 | 0.00 | 0.00 | 0.00 | 59 | 1009.4 |
| 20260906020045 | 83 | 177 | 0.0 | 2.0 | 0.00 | 0.00 | 0.00 | 60 | 1009.3 |
| 20260906014549 | 84 | 155 | 0.0 | 0.0 | 0.00 | 0.00 | 0.00 | 60 | 1009.0 |
| 20260906013046 | 85 | 155 | 0.0 | 0.0 | 0.00 | 0.00 | 0.00 | 59 | 1008.9 |
| 20260906011543 | 87 | 155 | 0.0 | 0.0 | 0.00 | 0.00 | 0.00 | 56 | 1009.0 |
| 20260906010043 | 89 | 154 | 0.0 | 0.0 | 0.00 | 0.00 | 0.00 | 51 | 1008.9 |
| 20260906004542 | 93 | 153 | 0.0 | 0.0 | 0.00 | 0.00 | 0.00 | 45 | 1008.8 |
| 20260906003041 | 95 | 153 | 0.0 | 0.0 | 0.00 | 0.00 | 0.00 | 41 | 1008.8 |
| 20260906001540 | 98 | 172 | 0.0 | 3.0 | 0.00 | 0.00 | 0.00 | 38 | 1008.9 |
| 20260906000040 | 100 | 131 | 0.0 | 5.0 | 0.00 | 0.00 | 0.00 | 36 | 1008.8 |
| 20260905234541 | 100 | 136 | 1.0 | 4.0 | 0.00 | 0.00 | 0.00 | 35 | 1008.7 |
| 20260905233040 | 101 | 153 | 3.0 | 6.0 | 0.00 | 0.00 | 0.00 | 34 | 1008.4 |
| 20260905231539 | 101 | 157 | 3.0 | 6.0 | 0.00 | 0.00 | 0.00 | 34 | 1008.4 |
| 20260905230037 | 101 | 154 | 3.0 | 8.0 | 0.00 | 0.00 | 0.00 | 33 | 1008.4 |
| 20260905224537 | 101 | 220 | 2.0 | 7.0 | 0.00 | 0.00 | 0.00 | 34 | 1008.4 |
| 20260905223037 | 101 | 141 | 6.0 | 13.0 | 0.00 | 0.00 | 0.00 | 34 | 1008.4 |
| 20260905221536 | 101 | 88 | 4.0 | 10.0 | 0.00 | 0.00 | 0.00 | 34 | 1008.4 |
| 20260905220033 | 102 | 199 | 4.0 | 12.0 | 0.00 | 0.00 | 0.00 | 33 | 1008.5 |
| 20260905214533 | 102 | 127 | 6.0 | 11.0 | 0.00 | 0.00 | 0.00 | 35 | 1008.6 |
| 20260905213029 | 101 | 152 | 4.0 | 13.0 | 0.00 | 0.00 | 0.00 | 34 | 1008.8 |
| 20260905211527 | 101 | 100 | 2.0 | 12.0 | 0.00 | 0.00 | 0.00 | 35 | 1009.0 |
| 20260905210022 | 101 | 212 | 6.0 | 10.0 | 0.00 | 0.00 | 0.00 | 35 | 1009.2 |
| 20260905204520 | 101 | 152 | 2.0 | 13.0 | 0.00 | 0.00 | 0.00 | 34 | 1009.4 |
| 20260905203017 | 101 | 205 | 4.0 | 10.0 | 0.00 | 0.00 | 0.00 | 34 | 1009.6 |
| 20260905201518 | 100 | 136 | 3.0 | 16.0 | 0.00 | 0.00 | 0.00 | 36 | 1009.9 |